Time;durP1;ratioP1;P1;durP2;ratioP2;P2;SDS_P1;SDS_P2;PMS_P1;PMS_P2;Temp;Humidity;BMP_temperature;BMP_pressure;BME280_temperature;BME280_humidity;BME280_pressure;Samples;Min_cycle;Max_cycle;Signal;HPM_P1;HPM_P2
2021/06/26 00:00:21;;;;;;;9.10;6.03;;;15.90;99.90;;;;;;5033459;28;20439;-82
2021/06/26 00:02:48;;;;;;;8.93;6.00;;;15.90;99.90;;;;;;5033770;28;20482;-83
2021/06/26 00:05:15;;;;;;;6.80;5.70;;;15.90;99.90;;;;;;5033313;28;20510;-83
2021/06/26 00:07:42;;;;;;;6.77;5.83;;;15.90;99.90;;;;;;5033211;28;20827;-83
2021/06/26 00:10:10;;;;;;;7.03;6.07;;;15.80;99.90;;;;;;5033372;28;20454;-83
2021/06/26 00:12:37;;;;;;;6.03;5.43;;;15.80;99.90;;;;;;5033289;28;20435;-83
2021/06/26 00:15:05;;;;;;;7.27;5.97;;;15.80;99.90;;;;;;5033329;28;20434;-81
2021/06/26 00:17:33;;;;;;;6.90;5.77;;;15.80;99.90;;;;;;5033214;28;20467;-82
2021/06/26 00:20:00;;;;;;;6.93;6.23;;;15.90;99.90;;;;;;5033247;28;20447;-82
2021/06/26 00:22:27;;;;;;;8.20;7.10;;;15.80;99.90;;;;;;5033246;28;20458;-82
2021/06/26 00:24:54;;;;;;;10.60;7.33;;;15.80;99.90;;;;;;5033161;28;20479;-83
2021/06/26 00:27:20;;;;;;;10.53;7.87;;;15.80;99.90;;;;;;5033127;28;20467;-83
2021/06/26 00:29:47;;;;;;;9.50;7.57;;;15.80;99.90;;;;;;5032967;28;20442;-83
2021/06/26 00:32:14;;;;;;;11.67;8.47;;;15.80;99.90;;;;;;5032889;28;20439;-82
2021/06/26 00:34:42;;;;;;;11.23;8.60;;;15.80;99.90;;;;;;5033185;28;20541;-82
2021/06/26 00:37:09;;;;;;;13.60;8.57;;;15.80;99.90;;;;;;5033590;28;20851;-90
2021/06/26 00:39:35;;;;;;;12.10;8.47;;;15.80;99.90;;;;;;5033860;28;20449;-89
2021/06/26 00:42:04;;;;;;;12.20;8.73;;;15.80;99.90;;;;;;5033706;28;20447;-90
2021/06/26 00:44:30;;;;;;;9.60;8.23;;;15.80;99.90;;;;;;5033527;28;20450;-90
2021/06/26 00:46:57;;;;;;;11.80;9.73;;;15.80;99.90;;;;;;5033510;28;20486;-90
2021/06/26 00:49:24;;;;;;;10.40;8.40;;;15.80;99.90;;;;;;5033747;28;20823;-90
2021/06/26 00:51:52;;;;;;;10.73;8.90;;;15.80;99.90;;;;;;5033610;28;20439;-89
2021/06/26 00:54:19;;;;;;;9.93;8.03;;;15.80;99.90;;;;;;5033634;28;20454;-89
2021/06/26 00:56:46;;;;;;;10.70;8.30;;;15.80;99.90;;;;;;5033504;28;20470;-90
2021/06/26 00:59:13;;;;;;;10.80;8.90;;;15.80;99.90;;;;;;5033617;28;20785;-90
2021/06/26 01:01:40;;;;;;;13.00;8.47;;;15.80;99.90;;;;;;5033220;28;20960;-90
2021/06/26 01:04:07;;;;;;;11.73;8.97;;;15.80;99.90;;;;;;5033017;28;20514;-90
2021/06/26 01:06:33;;;;;;;12.20;8.87;;;15.90;99.90;;;;;;5036414;28;20486;-90
2021/06/26 01:09:02;;;;;;;11.97;8.93;;;15.80;99.90;;;;;;5036903;28;20435;-89
2021/06/26 01:11:29;;;;;;;10.40;8.40;;;15.80;99.90;;;;;;5037144;28;20453;-90
2021/06/26 01:13:57;;;;;;;12.10;8.37;;;15.90;99.90;;;;;;5036886;28;20942;-90
2021/06/26 01:16:25;;;;;;;13.37;8.10;;;15.90;99.90;;;;;;5037014;28;20457;-90
2021/06/26 01:18:51;;;;;;;9.80;7.60;;;15.90;99.90;;;;;;5036695;28;20941;-90
2021/06/26 01:21:18;;;;;;;10.80;7.97;;;15.90;99.90;;;;;;5037054;28;20458;-90
2021/06/26 01:23:50;;;;;;;8.30;7.10;;;15.90;99.90;;;;;;5036656;28;20964;-90
2021/06/26 01:26:17;;;;;;;10.20;7.70;;;15.90;99.90;;;;;;5036700;28;20466;-89
2021/06/26 01:28:44;;;;;;;8.60;7.70;;;15.90;99.90;;;;;;5036786;28;20442;-89
2021/06/26 01:31:11;;;;;;;11.80;7.87;;;15.80;99.90;;;;;;5036482;28;20439;-90
2021/06/26 01:33:38;;;;;;;10.63;7.10;;;15.90;99.90;;;;;;5036248;28;20446;-85
2021/06/26 01:36:05;;;;;;;8.87;7.70;;;15.80;99.90;;;;;;5036026;28;20443;-85
2021/06/26 01:38:32;;;;;;;10.67;7.13;;;15.80;99.90;;;;;;5035739;28;20481;-85
2021/06/26 01:41:00;;;;;;;9.43;7.60;;;15.80;99.90;;;;;;5035714;28;20518;-85
2021/06/26 01:43:27;;;;;;;9.73;8.20;;;15.80;99.90;;;;;;5035758;28;20458;-85
2021/06/26 01:45:54;;;;;;;9.67;8.00;;;15.80;99.90;;;;;;5035518;28;20477;-86
2021/06/26 01:48:22;;;;;;;10.73;7.80;;;15.80;99.90;;;;;;5035530;28;20463;-86
2021/06/26 01:50:49;;;;;;;8.97;7.77;;;15.80;99.90;;;;;;5035533;28;20961;-87
2021/06/26 01:53:18;;;;;;;9.60;7.93;;;15.80;99.90;;;;;;5035771;28;20442;-86
2021/06/26 01:55:45;;;;;;;10.03;8.73;;;15.80;99.90;;;;;;5035500;28;20446;-86
2021/06/26 01:58:13;;;;;;;9.67;8.10;;;15.80;99.90;;;;;;5035283;28;20978;-86
2021/06/26 02:00:40;;;;;;;8.97;7.63;;;15.80;99.90;;;;;;5035272;28;20956;-85
2021/06/26 02:03:06;;;;;;;13.37;8.30;;;15.80;99.90;;;;;;5035284;28;20482;-86
2021/06/26 02:05:33;;;;;;;9.50;8.03;;;15.80;99.90;;;;;;5035442;28;20486;-87
2021/06/26 02:08:01;;;;;;;9.27;8.27;;;15.80;99.90;;;;;;5035767;28;20470;-90
2021/06/26 02:10:28;;;;;;;9.00;7.57;;;15.80;99.90;;;;;;5036111;28;20457;-90
2021/06/26 02:12:55;;;;;;;8.23;7.00;;;15.80;99.90;;;;;;5035999;28;20446;-90
2021/06/26 02:15:23;;;;;;;12.50;7.80;;;15.80;99.90;;;;;;5035967;28;20443;-90
2021/06/26 02:17:50;;;;;;;10.77;7.57;;;15.80;99.90;;;;;;5034817;28;20498;-85
2021/06/26 02:20:17;;;;;;;9.80;7.73;;;15.80;99.90;;;;;;5035204;28;20455;-85
2021/06/26 02:22:45;;;;;;;7.70;6.70;;;15.70;99.90;;;;;;5034996;28;20458;-84
2021/06/26 02:25:12;;;;;;;10.70;7.57;;;15.70;99.90;;;;;;5035265;28;20793;-85
2021/06/26 02:27:39;;;;;;;13.03;8.37;;;15.70;99.90;;;;;;5035037;28;20927;-84
2021/06/26 02:30:08;;;;;;;9.40;7.60;;;15.70;99.90;;;;;;5034823;28;20466;-85
2021/06/26 02:32:37;;;;;;;13.17;8.30;;;15.70;99.90;;;;;;5034971;28;20431;-85
2021/06/26 02:35:04;;;;;;;11.27;9.17;;;15.70;99.90;;;;;;5035632;28;20786;-85
2021/06/26 02:37:31;;;;;;;13.40;9.73;;;15.70;99.90;;;;;;5034314;28;21016;-84
2021/06/26 02:39:58;;;;;;;11.43;9.07;;;15.80;99.90;;;;;;5034558;28;20439;-85
2021/06/26 02:42:25;;;;;;;10.80;8.40;;;15.70;99.90;;;;;;5034465;28;20973;-84
2021/06/26 02:44:51;;;;;;;11.90;8.60;;;15.80;99.90;;;;;;5034575;28;20439;-89
2021/06/26 02:47:18;;;;;;;9.80;8.43;;;15.80;99.90;;;;;;5035234;28;20491;-90
2021/06/26 02:49:47;;;;;;;11.00;9.40;;;15.70;99.90;;;;;;5035305;28;20500;-90
2021/06/26 02:52:13;;;;;;;13.10;8.90;;;15.70;99.90;;;;;;5035187;28;20454;-90
2021/06/26 02:54:40;;;;;;;12.40;9.00;;;15.70;99.90;;;;;;5035124;28;20965;-89
2021/06/26 02:57:08;;;;;;;12.67;9.73;;;15.70;99.90;;;;;;5034982;28;20462;-90
2021/06/26 02:59:34;;;;;;;13.93;9.90;;;15.70;99.90;;;;;;5035012;28;20455;-90
2021/06/26 03:02:01;;;;;;;10.97;9.07;;;15.70;99.90;;;;;;5035083;28;20451;-90
2021/06/26 03:04:28;;;;;;;12.87;9.73;;;15.70;99.90;;;;;;5034620;28;20482;-90
2021/06/26 03:06:56;;;;;;;10.60;9.20;;;15.70;99.90;;;;;;5034839;28;20490;-90
2021/06/26 03:09:23;;;;;;;12.27;9.13;;;15.60;99.90;;;;;;5034978;28;20435;-90
2021/06/26 03:11:49;;;;;;;13.20;9.40;;;15.60;99.90;;;;;;5034891;28;20458;-90
2021/06/26 03:14:16;;;;;;;12.20;9.60;;;15.60;99.90;;;;;;5034639;28;20438;-89
2021/06/26 03:16:43;;;;;;;10.80;8.33;;;15.50;99.90;;;;;;5034274;28;20466;-86
2021/06/26 03:19:10;;;;;;;12.30;10.00;;;15.50;99.90;;;;;;5033965;28;20431;-86
2021/06/26 03:21:36;;;;;;;14.37;10.30;;;15.40;99.90;;;;;;5033942;28;20442;-86
2021/06/26 03:24:06;;;;;;;13.10;9.23;;;15.40;99.90;;;;;;5033823;28;20431;-86
2021/06/26 03:26:34;;;;;;;12.33;9.10;;;15.30;99.90;;;;;;5033817;28;20490;-86
2021/06/26 03:29:00;;;;;;;11.67;9.10;;;15.30;99.90;;;;;;5033077;28;20494;-86
2021/06/26 03:31:27;;;;;;;14.00;9.33;;;15.30;99.90;;;;;;5033999;28;20451;-86
2021/06/26 03:33:54;;;;;;;13.70;9.50;;;15.20;99.90;;;;;;5033826;28;20458;-86
2021/06/26 03:36:21;;;;;;;19.40;9.80;;;15.20;99.90;;;;;;5033840;28;20460;-86
2021/06/26 03:38:48;;;;;;;15.90;9.70;;;15.20;99.90;;;;;;5033826;28;20460;-86
2021/06/26 03:41:17;;;;;;;15.37;10.40;;;15.20;99.90;;;;;;5033819;28;20446;-86
2021/06/26 03:43:43;;;;;;;14.63;10.57;;;15.10;99.90;;;;;;5033829;28;20469;-86
2021/06/26 03:46:10;;;;;;;19.13;10.00;;;15.20;99.90;;;;;;5033712;28;20489;-86
2021/06/26 03:48:37;;;;;;;18.80;10.30;;;15.10;99.90;;;;;;5033772;28;20469;-86
2021/06/26 03:51:04;;;;;;;14.60;10.43;;;15.10;99.90;;;;;;5033716;28;20474;-86
2021/06/26 03:53:31;;;;;;;14.17;9.63;;;15.10;99.90;;;;;;5033664;28;20447;-86
2021/06/26 03:55:57;;;;;;;11.77;9.47;;;15.10;99.90;;;;;;5033331;28;20965;-85
2021/06/26 03:58:29;;;;;;;13.57;9.23;;;15.10;99.90;;;;;;5033175;28;20454;-85
2021/06/26 04:00:56;;;;;;;13.17;9.90;;;15.10;99.90;;;;;;5033578;28;20416;-84
2021/06/26 04:03:23;;;;;;;12.80;10.30;;;15.10;99.90;;;;;;5032891;28;20478;-84
2021/06/26 04:05:50;;;;;;;13.33;9.63;;;15.20;99.90;;;;;;5033369;28;20450;-84
2021/06/26 04:08:17;;;;;;;11.63;9.90;;;15.20;99.90;;;;;;5033004;28;20478;-84
2021/06/26 04:10:44;;;;;;;13.63;9.87;;;15.20;99.90;;;;;;5033336;28;20454;-84
2021/06/26 04:13:11;;;;;;;13.23;10.27;;;15.20;99.90;;;;;;5033289;28;20446;-84
2021/06/26 04:15:39;;;;;;;13.33;10.23;;;15.20;99.90;;;;;;5033122;28;20439;-84
2021/06/26 04:18:06;;;;;;;13.67;10.37;;;15.20;99.90;;;;;;5033069;28;20457;-84
2021/06/26 04:20:33;;;;;;;14.07;10.33;;;15.20;99.90;;;;;;5033135;28;20806;-84
2021/06/26 04:23:00;;;;;;;16.90;10.50;;;15.30;99.90;;;;;;5033004;28;20942;-84
2021/06/26 04:25:28;;;;;;;12.40;9.70;;;15.30;99.90;;;;;;5033247;28;20451;-84
2021/06/26 04:27:55;;;;;;;13.83;10.00;;;15.30;99.90;;;;;;5032826;28;20478;-84
2021/06/26 04:30:22;;;;;;;12.50;9.60;;;15.30;99.90;;;;;;5032961;28;20522;-84
2021/06/26 04:32:50;;;;;;;13.80;10.03;;;15.30;99.90;;;;;;5032867;28;20442;-86
2021/06/26 04:35:20;;;;;;;12.40;9.50;;;15.30;99.90;;;;;;5033234;28;20453;-86
2021/06/26 04:37:48;;;;;;;13.73;10.03;;;15.40;99.90;;;;;;5033013;28;20547;-85
2021/06/26 04:40:16;;;;;;;12.27;9.60;;;15.40;99.90;;;;;;5034646;28;20446;-86
2021/06/26 04:42:42;;;;;;;15.23;9.73;;;15.50;99.90;;;;;;5037000;28;20454;-86
2021/06/26 04:45:10;;;;;;;14.87;9.50;;;15.50;99.90;;;;;;5036977;28;20450;-86
2021/06/26 04:47:39;;;;;;;12.70;9.37;;;15.60;99.90;;;;;;5036860;28;20493;-86
2021/06/26 04:50:09;;;;;;;16.53;10.40;;;15.60;99.90;;;;;;5036591;28;20942;-85
2021/06/26 04:52:36;;;;;;;14.13;9.70;;;15.60;99.90;;;;;;5036651;28;20934;-85
2021/06/26 04:55:04;;;;;;;12.63;9.20;;;15.70;99.90;;;;;;5036741;28;20454;-86
2021/06/26 04:57:31;;;;;;;12.00;9.53;;;15.70;99.90;;;;;;5036354;28;20469;-86
2021/06/26 04:59:57;;;;;;;13.27;9.40;;;15.80;99.90;;;;;;5036820;28;20435;-86
2021/06/26 05:02:24;;;;;;;14.60;10.40;;;15.80;99.90;;;;;;5036228;28;20453;-85
2021/06/26 05:04:51;;;;;;;16.30;10.10;;;15.80;99.90;;;;;;5036398;28;20906;-86
2021/06/26 05:07:19;;;;;;;11.47;9.63;;;15.80;99.90;;;;;;5036482;28;20505;-85
2021/06/26 05:09:45;;;;;;;15.77;9.43;;;15.90;99.90;;;;;;5037139;28;20447;-85
2021/06/26 05:12:12;;;;;;;15.97;10.50;;;15.90;99.90;;;;;;5036251;28;20435;-86
2021/06/26 05:14:39;;;;;;;14.47;10.73;;;16.00;99.90;;;;;;5036460;28;20450;-85
2021/06/26 05:17:06;;;;;;;18.87;11.30;;;16.00;99.90;;;;;;5036605;28;20466;-85
2021/06/26 05:19:32;;;;;;;15.73;10.60;;;16.10;99.90;;;;;;5036130;28;20815;-86
2021/06/26 05:21:59;;;;;;;18.43;10.20;;;16.20;99.90;;;;;;5036404;28;20450;-85
2021/06/26 05:24:28;;;;;;;12.47;9.57;;;16.30;99.90;;;;;;5036005;28;20450;-85
2021/06/26 05:26:54;;;;;;;14.03;10.80;;;16.40;99.90;;;;;;5036030;28;20536;-85
2021/06/26 05:29:21;;;;;;;13.60;10.90;;;16.60;99.90;;;;;;5036265;28;20454;-85
2021/06/26 05:31:48;;;;;;;14.47;10.70;;;16.80;99.90;;;;;;5035930;28;20941;-85
2021/06/26 05:34:14;;;;;;;15.00;10.20;;;16.90;99.90;;;;;;5036148;28;20472;-85
2021/06/26 05:36:41;;;;;;;14.60;10.30;;;17.00;99.90;;;;;;5035722;28;20992;-85
2021/06/26 05:39:08;;;;;;;14.67;10.23;;;17.20;99.90;;;;;;5035698;28;20454;-85
2021/06/26 05:41:36;;;;;;;15.20;10.90;;;17.20;99.90;;;;;;5035992;28;20447;-85
2021/06/26 05:44:03;;;;;;;13.73;9.97;;;17.30;99.90;;;;;;5035656;28;20447;-85
2021/06/26 05:46:30;;;;;;;12.50;10.80;;;17.40;99.90;;;;;;5035434;28;20478;-85
2021/06/26 05:48:56;;;;;;;15.90;10.70;;;17.60;99.90;;;;;;5035685;28;20435;-84
2021/06/26 05:51:23;;;;;;;16.07;11.60;;;17.70;99.90;;;;;;5034868;28;20847;-84
2021/06/26 05:53:50;;;;;;;14.67;11.07;;;17.80;99.90;;;;;;5035736;28;20447;-84
2021/06/26 05:56:17;;;;;;;15.50;10.70;;;18.00;99.90;;;;;;5035329;28;20825;-84
2021/06/26 05:58:45;;;;;;;18.47;10.87;;;18.10;99.90;;;;;;5035333;28;20955;-85
2021/06/26 06:01:11;;;;;;;15.80;10.63;;;18.20;99.90;;;;;;5035685;28;20439;-85
2021/06/26 06:03:39;;;;;;;15.90;11.30;;;18.30;99.90;;;;;;5035196;28;20478;-84
2021/06/26 06:06:06;;;;;;;13.43;10.93;;;18.30;99.90;;;;;;5035526;28;20545;-85
2021/06/26 06:08:33;;;;;;;14.63;10.63;;;18.40;99.90;;;;;;5035100;28;20475;-84
2021/06/26 06:11:00;;;;;;;16.77;12.03;;;18.40;99.90;;;;;;5035448;28;20472;-84
2021/06/26 06:13:27;;;;;;;14.20;11.63;;;18.60;99.90;;;;;;5035416;28;20454;-84
2021/06/26 06:15:55;;;;;;;15.70;11.37;;;18.80;99.90;;;;;;5035367;28;20450;-84
2021/06/26 06:18:22;;;;;;;15.40;11.03;;;18.90;99.90;;;;;;5035195;28;20467;-83
2021/06/26 06:20:49;;;;;;;12.40;10.13;;;19.00;99.90;;;;;;5035928;28;20813;-83
2021/06/26 06:23:16;;;;;;;15.23;10.90;;;19.00;99.90;;;;;;5035199;28;20441;-83
2021/06/26 06:25:44;;;;;;;15.53;10.70;;;19.00;99.90;;;;;;5034804;28;20967;-83
2021/06/26 06:28:11;;;;;;;18.60;12.43;;;18.90;99.90;;;;;;5034770;28;20552;-83
2021/06/26 06:30:38;;;;;;;15.87;11.57;;;19.00;99.90;;;;;;5035475;28;20453;-84
2021/06/26 06:33:07;;;;;;;18.50;12.47;;;19.10;99.90;;;;;;5034723;28;20921;-84
2021/06/26 06:35:35;;;;;;;13.73;10.90;;;19.30;99.90;;;;;;5034871;28;20818;-84
2021/06/26 06:38:02;;;;;;;14.37;12.00;;;19.40;99.90;;;;;;5034749;28;20474;-83
2021/06/26 06:40:29;;;;;;;15.00;11.17;;;19.60;99.90;;;;;;5035245;28;20461;-83
2021/06/26 06:42:57;;;;;;;14.20;11.30;;;19.90;99.90;;;;;;5034701;28;20963;-83
2021/06/26 06:45:24;;;;;;;13.90;10.67;;;20.10;99.90;;;;;;5034763;28;20466;-81
2021/06/26 06:47:51;;;;;;;15.80;11.17;;;20.30;99.90;;;;;;5034363;28;20840;-83
2021/06/26 06:50:19;;;;;;;16.10;12.57;;;20.40;99.90;;;;;;5034777;28;20419;-82
2021/06/26 06:52:47;;;;;;;14.97;11.60;;;20.60;99.90;;;;;;5034453;28;20494;-83
2021/06/26 06:55:14;;;;;;;14.50;10.70;;;20.70;99.90;;;;;;5034298;28;20917;-81
2021/06/26 06:57:41;;;;;;;13.83;10.80;;;20.60;99.90;;;;;;5034649;28;20977;-83
2021/06/26 07:00:10;;;;;;;14.03;10.83;;;20.70;99.90;;;;;;5034524;28;20438;-82
2021/06/26 07:02:37;;;;;;;14.10;10.73;;;20.80;99.90;;;;;;5033973;28;20985;-82
2021/06/26 07:05:05;;;;;;;12.43;10.60;;;20.80;99.90;;;;;;5034474;28;20434;-82
2021/06/26 07:07:34;;;;;;;13.00;10.27;;;20.90;99.90;;;;;;5033851;28;20482;-82
2021/06/26 07:10:00;;;;;;;13.50;11.10;;;20.90;99.90;;;;;;5034045;28;20429;-83
2021/06/26 07:12:27;;;;;;;13.37;10.23;;;21.00;99.90;;;;;;5034469;28;20963;-84
2021/06/26 07:14:54;;;;;;;12.87;10.23;;;21.20;99.90;;;;;;5033956;28;20975;-82
2021/06/26 07:17:21;;;;;;;13.67;10.20;;;21.40;99.90;;;;;;5033975;28;20476;-83
2021/06/26 07:19:47;;;;;;;9.73;8.70;;;21.50;99.90;;;;;;5034160;28;20457;-83
2021/06/26 07:22:14;;;;;;;11.40;9.67;;;21.60;99.90;;;;;;5034076;28;20461;-83
2021/06/26 07:24:42;;;;;;;11.47;9.63;;;21.70;99.90;;;;;;5034018;28;20553;-82
2021/06/26 07:27:11;;;;;;;11.87;9.90;;;21.80;99.90;;;;;;5033821;28;20500;-82
2021/06/26 07:29:38;;;;;;;11.70;10.50;;;21.80;99.90;;;;;;5033904;28;20446;-82
2021/06/26 07:32:05;;;;;;;12.50;11.10;;;21.90;99.90;;;;;;5033976;28;20442;-83
2021/06/26 07:34:32;;;;;;;14.07;10.60;;;22.00;99.90;;;;;;5033621;28;20439;-82
2021/06/26 07:36:59;;;;;;;15.03;10.20;;;22.20;99.90;;;;;;5033828;28;20458;-82
2021/06/26 07:39:26;;;;;;;13.57;10.20;;;22.10;99.90;;;;;;5033526;28;20450;-82
2021/06/26 07:41:54;;;;;;;13.80;11.23;;;21.80;99.90;;;;;;5033414;28;20434;-83
2021/06/26 07:44:22;;;;;;;13.80;10.20;;;21.70;99.90;;;;;;5032852;28;20450;-82
2021/06/26 07:46:49;;;;;;;12.10;10.33;;;21.80;99.90;;;;;;5033766;28;20457;-82
2021/06/26 07:49:16;;;;;;;12.60;8.77;;;21.80;99.90;;;;;;5033377;28;20438;-82
2021/06/26 07:51:43;;;;;;;13.10;9.83;;;21.90;99.90;;;;;;5033329;28;20441;-83
2021/06/26 07:54:10;;;;;;;12.53;10.10;;;22.20;99.90;;;;;;5033238;28;20820;-82
2021/06/26 07:56:37;;;;;;;15.50;9.80;;;22.80;99.90;;;;;;5033271;28;20980;-82
2021/06/26 07:59:05;;;;;;;10.27;8.50;;;23.10;99.90;;;;;;5033164;28;21021;-82
2021/06/26 08:01:32;;;;;;;9.70;8.50;;;23.20;99.90;;;;;;5033460;28;20222;-82
2021/06/26 08:03:58;;;;;;;8.90;8.00;;;23.10;99.90;;;;;;5033046;28;20235;-83
2021/06/26 08:06:25;;;;;;;11.75;9.32;;;23.50;99.90;;;;;;5033115;28;20195;-82
2021/06/26 08:08:52;;;;;;;8.82;7.90;;;23.90;99.90;;;;;;5033008;28;20702;-83
2021/06/26 08:11:20;;;;;;;8.20;7.10;;;24.30;99.90;;;;;;5033047;28;20199;-82
2021/06/26 08:13:47;;;;;;;9.40;8.07;;;24.60;99.90;;;;;;5033339;28;20223;-81
2021/06/26 08:16:15;;;;;;;9.55;8.55;;;24.70;99.90;;;;;;5032419;28;20215;-82
2021/06/26 08:18:42;;;;;;;10.55;8.38;;;24.70;99.90;;;;;;5033224;28;20211;-82
2021/06/26 08:21:09;;;;;;;7.97;7.18;;;24.50;99.90;;;;;;5033305;28;20230;-82
2021/06/26 08:23:36;;;;;;;8.27;6.93;;;24.30;99.90;;;;;;5032886;28;20679;-81
2021/06/26 08:26:03;;;;;;;8.75;7.78;;;24.20;99.90;;;;;;5033289;28;20216;-80
2021/06/26 08:28:30;;;;;;;10.63;8.32;;;24.20;99.90;;;;;;5032789;28;20691;-83
2021/06/26 08:30:57;;;;;;;7.38;6.68;;;24.20;99.90;;;;;;5033159;28;20207;-81
2021/06/26 08:33:25;;;;;;;7.47;6.78;;;24.40;99.90;;;;;;5033164;28;20198;-81
2021/06/26 08:35:52;;;;;;;8.18;7.38;;;24.70;99.90;;;;;;5033184;28;20191;-81
2021/06/26 08:38:18;;;;;;;8.05;7.25;;;24.70;99.90;;;;;;5033056;28;20219;-82
2021/06/26 08:40:46;;;;;;;7.07;6.47;;;24.60;99.90;;;;;;5033079;28;20195;-82
2021/06/26 08:43:13;;;;;;;8.23;7.43;;;24.30;99.90;;;;;;5032841;28;20267;-82
2021/06/26 08:45:40;;;;;;;6.38;5.85;;;24.20;99.90;;;;;;5032818;28;20187;-81
2021/06/26 08:48:07;;;;;;;8.68;7.80;;;24.00;99.90;;;;;;5032807;28;20705;-82
2021/06/26 08:50:35;;;;;;;7.53;6.82;;;23.80;99.90;;;;;;5033430;28;20542;-82
2021/06/26 08:53:02;;;;;;;7.55;6.82;;;23.90;99.90;;;;;;5032897;28;20209;-83
2021/06/26 08:55:29;;;;;;;8.10;7.30;;;23.80;99.90;;;;;;5031665;28;20208;-84
2021/06/26 08:57:56;;;;;;;8.50;7.68;;;23.80;99.90;;;;;;5032936;28;20586;-81
2021/06/26 09:00:24;;;;;;;7.83;7.20;;;23.60;99.90;;;;;;5032969;28;20211;-81
2021/06/26 09:02:52;;;;;;;6.95;6.32;;;23.40;99.90;;;;;;5032523;28;20230;-82
2021/06/26 09:05:27;;;;;;;7.20;6.50;;;23.60;99.90;;;;;;5032633;28;20195;-81
2021/06/26 09:07:55;;;;;;;6.80;6.10;;;23.70;99.90;;;;;;5032650;28;20606;-81
2021/06/26 09:10:25;;;;;;;7.57;6.90;;;23.80;99.90;;;;;;5033306;28;20290;-82
2021/06/26 09:12:52;;;;;;;7.28;6.68;;;23.90;99.90;;;;;;5032858;28;20198;-82
2021/06/26 09:15:24;;;;;;;7.50;6.80;;;24.00;99.90;;;;;;5033561;28;20611;-82
2021/06/26 09:17:51;;;;;;;8.68;7.85;;;24.10;99.90;;;;;;5032696;28;20219;-82
2021/06/26 09:20:19;;;;;;;7.32;6.68;;;23.90;99.90;;;;;;5032744;28;20224;-83
2021/06/26 09:22:51;;;;;;;6.32;5.75;;;24.00;99.90;;;;;;5032997;28;20294;-82
2021/06/26 09:25:30;;;;;;;8.27;6.93;;;24.00;99.90;;;;;;5032595;28;20203;-82
2021/06/26 09:27:58;;;;;;;7.55;6.95;;;24.20;99.90;;;;;;5035540;28;20293;-81
2021/06/26 09:30:36;;;;;;;7.45;6.72;;;24.20;99.90;;;;;;5036249;28;20192;-81
2021/06/26 09:33:11;;;;;;;7.35;6.50;;;24.40;99.90;;;;;;5035869;28;20188;-82
2021/06/26 09:35:39;;;;;;;7.65;6.70;;;24.60;99.90;;;;;;5035822;28;20183;-81
2021/06/26 09:38:08;;;;;;;7.50;6.40;;;24.90;99.90;;;;;;5035723;28;20231;-81
2021/06/26 09:40:39;;;;;;;7.38;6.68;;;24.90;99.70;;;;;;5035688;28;20563;-81
2021/06/26 09:43:06;;;;;;;7.18;6.57;;;24.80;99.90;;;;;;5035962;28;20246;-81
2021/06/26 09:45:34;;;;;;;10.80;7.22;;;24.90;99.90;;;;;;5035940;28;20196;-80
2021/06/26 09:48:05;;;;;;;7.55;6.85;;;25.00;99.90;;;;;;5035749;28;20238;-81
2021/06/26 09:50:34;;;;;;;7.50;6.80;;;24.90;99.90;;;;;;5035600;28;20193;-82
2021/06/26 09:53:04;;;;;;;8.40;7.43;;;24.60;99.90;;;;;;5035849;28;20188;-84
2021/06/26 09:55:33;;;;;;;9.00;7.70;;;24.60;99.90;;;;;;5035504;28;20207;-84
2021/06/26 09:58:03;;;;;;;6.32;5.78;;;24.50;99.90;;;;;;5035725;28;20220;-84
2021/06/26 10:00:31;;;;;;;7.03;6.43;;;24.40;99.90;;;;;;5035820;28;20195;-84
2021/06/26 10:02:59;;;;;;;6.10;5.50;;;24.60;99.90;;;;;;5035403;28;20227;-84
2021/06/26 10:05:26;;;;;;;7.20;5.55;;;24.80;99.90;;;;;;5035592;28;20207;-84
2021/06/26 10:07:53;;;;;;;6.53;5.97;;;25.00;99.90;;;;;;5035663;28;20234;-85
2021/06/26 10:10:22;;;;;;;7.70;7.00;;;25.10;99.80;;;;;;5035529;28;20200;-84
2021/06/26 10:12:50;;;;;;;7.43;6.57;;;24.90;99.90;;;;;;5035478;28;20184;-86
2021/06/26 10:15:20;;;;;;;6.50;5.93;;;24.80;98.90;;;;;;5035509;28;20188;-85
2021/06/26 10:17:47;;;;;;;7.13;6.30;;;24.40;99.90;;;;;;5035035;28;20702;-86
2021/06/26 10:20:17;;;;;;;6.75;6.15;;;24.40;99.90;;;;;;5035436;28;20207;-85
2021/06/26 10:22:47;;;;;;;6.38;5.85;;;24.60;99.90;;;;;;5035344;28;20192;-84
2021/06/26 10:25:14;;;;;;;7.05;6.45;;;24.70;99.90;;;;;;5035300;28;20206;-80
2021/06/26 10:27:41;;;;;;;7.15;6.45;;;24.70;99.90;;;;;;5034960;28;20584;-84
2021/06/26 10:30:13;;;;;;;6.72;6.15;;;24.60;99.80;;;;;;5034905;28;20715;-86
2021/06/26 10:32:52;;;;;;;7.75;7.15;;;24.40;99.80;;;;;;5035114;28;20194;-83
2021/06/26 10:35:20;;;;;;;6.82;6.22;;;24.20;99.90;;;;;;5034906;28;20661;-85
2021/06/26 10:37:47;;;;;;;6.28;5.78;;;24.00;99.90;;;;;;5034385;28;20732;-82
2021/06/26 10:40:14;;;;;;;6.13;5.63;;;24.00;99.90;;;;;;5034748;28;20187;-84
2021/06/26 10:42:41;;;;;;;8.20;7.40;;;23.80;99.90;;;;;;5034986;28;20675;-84
2021/06/26 10:45:25;;;;;;;7.13;6.43;;;23.60;99.90;;;;;;5034632;28;20188;-84
2021/06/26 10:47:53;;;;;;;6.30;5.80;;;23.60;99.90;;;;;;5034391;28;20585;-84
2021/06/26 10:50:22;;;;;;;6.50;5.90;;;23.70;99.90;;;;;;5034597;28;20643;-84
2021/06/26 10:52:50;;;;;;;6.23;5.63;;;23.90;99.90;;;;;;5034847;28;20191;-85
2021/06/26 10:55:27;;;;;;;5.83;5.23;;;23.90;99.90;;;;;;5034577;28;20210;-84
2021/06/26 10:57:54;;;;;;;4.80;4.30;;;23.80;99.30;;;;;;5034695;28;20231;-82
2021/06/26 11:00:32;;;;;;;5.90;5.40;;;24.00;98.30;;;;;;5034741;28;20190;-83
2021/06/26 11:03:00;;;;;;;6.30;5.80;;;24.60;99.30;;;;;;5034336;28;20223;-84
2021/06/26 11:05:30;;;;;;;6.30;5.70;;;25.10;99.00;;;;;;5034491;28;20225;-84
2021/06/26 11:07:57;;;;;;;6.07;5.57;;;25.60;97.20;;;;;;5034072;28;20779;-83
2021/06/26 11:10:25;;;;;;;5.30;4.80;;;25.90;95.60;;;;;;5034535;28;20199;-83
2021/06/26 11:12:52;;;;;;;5.40;5.00;;;25.90;97.20;;;;;;5034325;28;20190;-83
2021/06/26 11:15:26;;;;;;;5.82;5.30;;;26.00;95.60;;;;;;5035148;28;20199;-84
2021/06/26 11:17:53;;;;;;;5.05;4.65;;;25.60;95.40;;;;;;5034387;28;20219;-84
2021/06/26 11:20:21;;;;;;;5.50;5.10;;;25.40;96.40;;;;;;5034326;28;20187;-85
2021/06/26 11:22:54;;;;;;;5.90;5.40;;;25.10;96.60;;;;;;5034414;28;20199;-86
2021/06/26 11:25:21;;;;;;;5.28;4.82;;;25.00;97.00;;;;;;5034077;28;20179;-83
2021/06/26 11:27:48;;;;;;;4.95;4.55;;;24.90;96.80;;;;;;5033882;28;20714;-85
2021/06/26 11:30:16;;;;;;;5.72;5.20;;;24.70;95.60;;;;;;5034128;28;20211;-85
2021/06/26 11:32:43;;;;;;;7.10;6.13;;;24.60;95.70;;;;;;5034836;28;20188;-84
2021/06/26 11:35:12;;;;;;;5.35;4.90;;;24.40;96.60;;;;;;5034069;28;20204;-83
2021/06/26 11:37:42;;;;;;;5.65;5.20;;;24.30;97.20;;;;;;5033920;28;20227;-82
2021/06/26 11:40:21;;;;;;;5.35;4.80;;;24.40;97.10;;;;;;5033722;28;20188;-84
2021/06/26 11:42:52;;;;;;;4.97;4.60;;;24.30;97.40;;;;;;5033864;28;20194;-84
2021/06/26 11:45:21;;;;;;;5.78;5.28;;;24.20;96.10;;;;;;5033477;28;20628;-84
2021/06/26 11:47:47;;;;;;;5.68;5.22;;;23.90;96.60;;;;;;5033597;28;20642;-84
2021/06/26 11:50:15;;;;;;;5.75;5.22;;;23.70;97.40;;;;;;5032654;28;20286;-83
2021/06/26 11:52:44;;;;;;;5.03;4.63;;;23.60;97.90;;;;;;5033366;28;20647;-83
2021/06/26 11:55:12;;;;;;;5.25;4.85;;;23.60;98.10;;;;;;5033350;28;20191;-85
2021/06/26 11:57:39;;;;;;;13.40;5.55;;;23.60;97.40;;;;;;5033548;28;20606;-84
2021/06/26 12:00:07;;;;;;;5.67;5.27;;;23.70;97.00;;;;;;5033636;28;20187;-85
2021/06/26 12:02:39;;;;;;;5.20;4.70;;;23.70;96.80;;;;;;5033371;28;20243;-85
2021/06/26 12:05:07;;;;;;;5.80;5.20;;;23.70;98.20;;;;;;5033542;28;20202;-84
2021/06/26 12:07:35;;;;;;;4.80;4.50;;;23.90;97.00;;;;;;5032900;28;20227;-84
2021/06/26 12:10:04;;;;;;;5.40;5.00;;;24.00;97.40;;;;;;5034266;28;20207;-85
2021/06/26 12:12:37;;;;;;;5.20;4.73;;;23.90;97.80;;;;;;5033808;28;20550;-84
2021/06/26 12:15:05;;;;;;;5.50;5.10;;;23.80;98.80;;;;;;5033698;28;20205;-85
2021/06/26 12:17:32;;;;;;;5.47;5.07;;;23.80;98.20;;;;;;5033294;28;20222;-84
2021/06/26 12:20:05;;;;;;;6.00;5.50;;;23.70;98.00;;;;;;5033154;28;20184;-84
2021/06/26 12:22:32;;;;;;;5.07;4.57;;;23.70;99.00;;;;;;5033391;28;20190;-84
2021/06/26 12:25:11;;;;;;;5.03;4.63;;;23.90;96.90;;;;;;5033353;28;20195;-84
2021/06/26 12:27:38;;;;;;;4.53;4.22;;;23.90;97.50;;;;;;5033291;28;20222;-85
2021/06/26 12:30:08;;;;;;;4.63;4.33;;;24.00;97.10;;;;;;5033087;28;20693;-84
2021/06/26 12:32:36;;;;;;;5.03;4.63;;;23.80;97.40;;;;;;5033366;28;20188;-84
2021/06/26 12:35:04;;;;;;;5.10;4.70;;;23.80;96.90;;;;;;5033392;28;20203;-84
2021/06/26 12:37:33;;;;;;;5.50;5.00;;;23.70;97.60;;;;;;5033368;28;20690;-86
2021/06/26 12:40:07;;;;;;;5.05;4.68;;;23.60;98.10;;;;;;5033551;28;20194;-85